sensor_id;sensor_type;location;lat;lon;timestamp;P1;durP1;ratioP1;P2;durP2;ratioP2
22543;SDS011;11438;52.044;8.716;2023-07-31T00:00:35;0.60;;;0.40;;
22543;SDS011;11438;52.044;8.716;2023-07-31T00:03:00;1.90;;;0.38;;
22543;SDS011;11438;52.044;8.716;2023-07-31T00:05:26;0.70;;;0.30;;
22543;SDS011;11438;52.044;8.716;2023-07-31T00:07:52;1.90;;;0.30;;
22543;SDS011;11438;52.044;8.716;2023-07-31T00:10:19;0.60;;;0.32;;
22543;SDS011;11438;52.044;8.716;2023-07-31T00:12:44;0.50;;;0.35;;
22543;SDS011;11438;52.044;8.716;2023-07-31T00:15:10;0.52;;;0.38;;
22543;SDS011;11438;52.044;8.716;2023-07-31T00:17:36;0.90;;;0.30;;
22543;SDS011;11438;52.044;8.716;2023-07-31T00:20:02;0.50;;;0.30;;
22543;SDS011;11438;52.044;8.716;2023-07-31T00:22:28;0.40;;;0.22;;
22543;SDS011;11438;52.044;8.716;2023-07-31T00:24:54;0.30;;;0.30;;
22543;SDS011;11438;52.044;8.716;2023-07-31T00:27:20;0.30;;;0.22;;
22543;SDS011;11438;52.044;8.716;2023-07-31T00:29:46;1.90;;;0.20;;
22543;SDS011;11438;52.044;8.716;2023-07-31T00:32:12;0.30;;;0.20;;
22543;SDS011;11438;52.044;8.716;2023-07-31T00:34:37;0.40;;;0.30;;
22543;SDS011;11438;52.044;8.716;2023-07-31T00:37:03;0.63;;;0.40;;
22543;SDS011;11438;52.044;8.716;2023-07-31T00:39:30;1.50;;;0.30;;
22543;SDS011;11438;52.044;8.716;2023-07-31T00:41:56;0.45;;;0.40;;
22543;SDS011;11438;52.044;8.716;2023-07-31T00:44:22;0.70;;;0.40;;
22543;SDS011;11438;52.044;8.716;2023-07-31T00:46:48;1.20;;;0.55;;
22543;SDS011;11438;52.044;8.716;2023-07-31T00:49:14;1.55;;;0.60;;
22543;SDS011;11438;52.044;8.716;2023-07-31T00:51:41;0.93;;;0.50;;
22543;SDS011;11438;52.044;8.716;2023-07-31T00:54:07;0.80;;;0.40;;
22543;SDS011;11438;52.044;8.716;2023-07-31T00:56:32;0.77;;;0.50;;
22543;SDS011;11438;52.044;8.716;2023-07-31T00:58:59;0.90;;;0.60;;
22543;SDS011;11438;52.044;8.716;2023-07-31T01:01:24;0.75;;;0.50;;
22543;SDS011;11438;52.044;8.716;2023-07-31T01:03:50;1.83;;;0.50;;
22543;SDS011;11438;52.044;8.716;2023-07-31T01:06:33;0.60;;;0.40;;
22543;SDS011;11438;52.044;8.716;2023-07-31T01:09:28;1.50;;;0.70;;
22543;SDS011;11438;52.044;8.716;2023-07-31T01:12:02;0.55;;;0.50;;
22543;SDS011;11438;52.044;8.716;2023-07-31T01:14:28;1.85;;;0.60;;
22543;SDS011;11438;52.044;8.716;2023-07-31T01:16:54;0.70;;;0.60;;
22543;SDS011;11438;52.044;8.716;2023-07-31T01:19:21;1.42;;;0.52;;
22543;SDS011;11438;52.044;8.716;2023-07-31T01:22:12;1.05;;;0.60;;
22543;SDS011;11438;52.044;8.716;2023-07-31T01:27:59;0.70;;;0.40;;
22543;SDS011;11438;52.044;8.716;2023-07-31T01:30:34;0.93;;;0.50;;
22543;SDS011;11438;52.044;8.716;2023-07-31T01:33:06;0.80;;;0.50;;
22543;SDS011;11438;52.044;8.716;2023-07-31T01:35:36;0.73;;;0.50;;
22543;SDS011;11438;52.044;8.716;2023-07-31T01:38:03;1.52;;;0.57;;
22543;SDS011;11438;52.044;8.716;2023-07-31T01:40:29;0.98;;;0.50;;
22543;SDS011;11438;52.044;8.716;2023-07-31T01:42:55;1.35;;;0.70;;
22543;SDS011;11438;52.044;8.716;2023-07-31T01:45:21;0.75;;;0.52;;
22543;SDS011;11438;52.044;8.716;2023-07-31T01:47:46;0.65;;;0.60;;
22543;SDS011;11438;52.044;8.716;2023-07-31T01:50:12;0.68;;;0.50;;
22543;SDS011;11438;52.044;8.716;2023-07-31T01:52:38;1.52;;;0.60;;
22543;SDS011;11438;52.044;8.716;2023-07-31T01:55:04;0.93;;;0.57;;
22543;SDS011;11438;52.044;8.716;2023-07-31T01:57:29;1.30;;;0.60;;
22543;SDS011;11438;52.044;8.716;2023-07-31T01:59:55;1.55;;;0.75;;
22543;SDS011;11438;52.044;8.716;2023-07-31T02:02:21;1.27;;;0.80;;
22543;SDS011;11438;52.044;8.716;2023-07-31T02:04:48;2.15;;;0.70;;
22543;SDS011;11438;52.044;8.716;2023-07-31T02:07:13;1.00;;;0.63;;
22543;SDS011;11438;52.044;8.716;2023-07-31T02:09:39;1.33;;;0.80;;
22543;SDS011;11438;52.044;8.716;2023-07-31T02:12:05;1.30;;;0.80;;
22543;SDS011;11438;52.044;8.716;2023-07-31T02:14:33;2.45;;;0.90;;
22543;SDS011;11438;52.044;8.716;2023-07-31T02:16:59;4.10;;;0.90;;
22543;SDS011;11438;52.044;8.716;2023-07-31T02:19:25;1.30;;;0.90;;
22543;SDS011;11438;52.044;8.716;2023-07-31T02:21:50;0.80;;;0.70;;
22543;SDS011;11438;52.044;8.716;2023-07-31T02:24:16;1.88;;;0.70;;
22543;SDS011;11438;52.044;8.716;2023-07-31T02:26:42;0.98;;;0.63;;
22543;SDS011;11438;52.044;8.716;2023-07-31T02:29:08;1.35;;;0.65;;
22543;SDS011;11438;52.044;8.716;2023-07-31T02:31:33;2.45;;;0.70;;
22543;SDS011;11438;52.044;8.716;2023-07-31T02:33:59;1.27;;;0.70;;
22543;SDS011;11438;52.044;8.716;2023-07-31T02:36:25;0.80;;;0.50;;
22543;SDS011;11438;52.044;8.716;2023-07-31T02:38:50;0.68;;;0.55;;
22543;SDS011;11438;52.044;8.716;2023-07-31T02:41:16;1.50;;;0.50;;
22543;SDS011;11438;52.044;8.716;2023-07-31T02:43:42;0.90;;;0.60;;
22543;SDS011;11438;52.044;8.716;2023-07-31T02:46:08;1.17;;;0.40;;
22543;SDS011;11438;52.044;8.716;2023-07-31T02:48:33;1.65;;;0.60;;
22543;SDS011;11438;52.044;8.716;2023-07-31T02:50:59;1.13;;;0.50;;
22543;SDS011;11438;52.044;8.716;2023-07-31T02:53:24;0.50;;;0.40;;
22543;SDS011;11438;52.044;8.716;2023-07-31T02:55:50;0.82;;;0.40;;
22543;SDS011;11438;52.044;8.716;2023-07-31T02:58:16;3.25;;;0.50;;
22543;SDS011;11438;52.044;8.716;2023-07-31T03:00:42;0.80;;;0.50;;
22543;SDS011;11438;52.044;8.716;2023-07-31T03:03:08;1.73;;;0.40;;
22543;SDS011;11438;52.044;8.716;2023-07-31T03:05:34;0.70;;;0.52;;
22543;SDS011;11438;52.044;8.716;2023-07-31T03:08:01;0.63;;;0.43;;
22543;SDS011;11438;52.044;8.716;2023-07-31T03:10:26;0.40;;;0.30;;
22543;SDS011;11438;52.044;8.716;2023-07-31T03:12:52;0.60;;;0.40;;
22543;SDS011;11438;52.044;8.716;2023-07-31T03:15:18;0.95;;;0.50;;
22543;SDS011;11438;52.044;8.716;2023-07-31T03:17:43;0.88;;;0.50;;
22543;SDS011;11438;52.044;8.716;2023-07-31T03:20:09;1.65;;;0.50;;
22543;SDS011;11438;52.044;8.716;2023-07-31T03:22:35;0.45;;;0.25;;
22543;SDS011;11438;52.044;8.716;2023-07-31T03:25:01;0.90;;;0.50;;
22543;SDS011;11438;52.044;8.716;2023-07-31T03:27:27;0.63;;;0.40;;
22543;SDS011;11438;52.044;8.716;2023-07-31T03:29:53;1.20;;;0.65;;
22543;SDS011;11438;52.044;8.716;2023-07-31T03:32:18;1.30;;;0.90;;
22543;SDS011;11438;52.044;8.716;2023-07-31T03:34:44;2.30;;;1.40;;
22543;SDS011;11438;52.044;8.716;2023-07-31T03:37:10;4.55;;;2.00;;
22543;SDS011;11438;52.044;8.716;2023-07-31T03:39:35;4.53;;;2.58;;
22543;SDS011;11438;52.044;8.716;2023-07-31T03:42:01;3.90;;;2.53;;
22543;SDS011;11438;52.044;8.716;2023-07-31T03:44:26;4.90;;;2.85;;
22543;SDS011;11438;52.044;8.716;2023-07-31T03:46:52;4.68;;;2.97;;
22543;SDS011;11438;52.044;8.716;2023-07-31T03:49:18;4.70;;;3.20;;
22543;SDS011;11438;52.044;8.716;2023-07-31T03:51:43;6.95;;;3.47;;
22543;SDS011;11438;52.044;8.716;2023-07-31T03:54:09;5.63;;;3.55;;
22543;SDS011;11438;52.044;8.716;2023-07-31T03:56:35;5.70;;;3.97;;
22543;SDS011;11438;52.044;8.716;2023-07-31T03:59:00;6.75;;;4.45;;
22543;SDS011;11438;52.044;8.716;2023-07-31T04:01:26;6.55;;;4.35;;
22543;SDS011;11438;52.044;8.716;2023-07-31T04:03:52;5.80;;;4.53;;
22543;SDS011;11438;52.044;8.716;2023-07-31T04:06:17;7.57;;;4.75;;
22543;SDS011;11438;52.044;8.716;2023-07-31T04:08:43;6.80;;;4.32;;
22543;SDS011;11438;52.044;8.716;2023-07-31T04:11:10;7.72;;;4.88;;
22543;SDS011;11438;52.044;8.716;2023-07-31T04:13:36;7.25;;;4.65;;
22543;SDS011;11438;52.044;8.716;2023-07-31T04:16:02;8.38;;;5.13;;
22543;SDS011;11438;52.044;8.716;2023-07-31T04:18:28;7.35;;;5.03;;
22543;SDS011;11438;52.044;8.716;2023-07-31T04:20:55;7.97;;;5.00;;
22543;SDS011;11438;52.044;8.716;2023-07-31T04:23:21;9.25;;;5.40;;
22543;SDS011;11438;52.044;8.716;2023-07-31T04:25:47;6.85;;;4.82;;
22543;SDS011;11438;52.044;8.716;2023-07-31T04:28:12;9.63;;;5.32;;
22543;SDS011;11438;52.044;8.716;2023-07-31T04:30:38;7.20;;;5.32;;
22543;SDS011;11438;52.044;8.716;2023-07-31T04:33:04;8.85;;;5.53;;
22543;SDS011;11438;52.044;8.716;2023-07-31T04:35:29;7.90;;;5.47;;
22543;SDS011;11438;52.044;8.716;2023-07-31T04:37:55;10.10;;;5.47;;
22543;SDS011;11438;52.044;8.716;2023-07-31T04:40:20;15.45;;;5.80;;
22543;SDS011;11438;52.044;8.716;2023-07-31T04:42:46;9.52;;;5.07;;
22543;SDS011;11438;52.044;8.716;2023-07-31T04:45:12;11.27;;;6.60;;
22543;SDS011;11438;52.044;8.716;2023-07-31T04:47:39;10.63;;;5.30;;
22543;SDS011;11438;52.044;8.716;2023-07-31T04:50:05;9.90;;;5.10;;
22543;SDS011;11438;52.044;8.716;2023-07-31T04:52:31;8.32;;;4.85;;
22543;SDS011;11438;52.044;8.716;2023-07-31T04:54:57;8.40;;;4.93;;
22543;SDS011;11438;52.044;8.716;2023-07-31T04:57:22;8.48;;;4.88;;
22543;SDS011;11438;52.044;8.716;2023-07-31T04:59:48;8.50;;;5.28;;
22543;SDS011;11438;52.044;8.716;2023-07-31T05:02:13;11.18;;;5.25;;
22543;SDS011;11438;52.044;8.716;2023-07-31T05:04:39;9.35;;;5.47;;
22543;SDS011;11438;52.044;8.716;2023-07-31T05:07:04;10.25;;;4.97;;
22543;SDS011;11438;52.044;8.716;2023-07-31T05:09:30;7.97;;;5.03;;
22543;SDS011;11438;52.044;8.716;2023-07-31T05:11:56;10.60;;;5.53;;
22543;SDS011;11438;52.044;8.716;2023-07-31T05:14:21;10.90;;;5.25;;
22543;SDS011;11438;52.044;8.716;2023-07-31T05:16:47;10.40;;;4.78;;
22543;SDS011;11438;52.044;8.716;2023-07-31T05:19:12;8.77;;;5.38;;
22543;SDS011;11438;52.044;8.716;2023-07-31T05:21:38;9.95;;;4.88;;
22543;SDS011;11438;52.044;8.716;2023-07-31T05:24:04;7.00;;;4.38;;
22543;SDS011;11438;52.044;8.716;2023-07-31T05:26:30;7.05;;;4.15;;
22543;SDS011;11438;52.044;8.716;2023-07-31T05:28:55;9.32;;;4.93;;
22543;SDS011;11438;52.044;8.716;2023-07-31T05:31:22;8.98;;;4.38;;
22543;SDS011;11438;52.044;8.716;2023-07-31T05:33:49;9.38;;;4.93;;
22543;SDS011;11438;52.044;8.716;2023-07-31T05:36:15;6.97;;;4.40;;
22543;SDS011;11438;52.044;8.716;2023-07-31T05:38:41;13.30;;;5.13;;
22543;SDS011;11438;52.044;8.716;2023-07-31T05:41:09;10.25;;;4.90;;
22543;SDS011;11438;52.044;8.716;2023-07-31T05:43:36;10.70;;;3.95;;
22543;SDS011;11438;52.044;8.716;2023-07-31T05:46:02;9.60;;;4.28;;
22543;SDS011;11438;52.044;8.716;2023-07-31T05:48:28;9.18;;;4.32;;
22543;SDS011;11438;52.044;8.716;2023-07-31T05:50:53;9.57;;;4.35;;
22543;SDS011;11438;52.044;8.716;2023-07-31T05:53:19;10.23;;;4.35;;
22543;SDS011;11438;52.044;8.716;2023-07-31T05:55:44;8.07;;;3.88;;
22543;SDS011;11438;52.044;8.716;2023-07-31T05:58:10;11.07;;;4.72;;
22543;SDS011;11438;52.044;8.716;2023-07-31T06:00:35;9.82;;;4.50;;
22543;SDS011;11438;52.044;8.716;2023-07-31T06:03:01;10.02;;;4.05;;
22543;SDS011;11438;52.044;8.716;2023-07-31T06:05:27;10.43;;;4.40;;
22543;SDS011;11438;52.044;8.716;2023-07-31T06:07:54;6.40;;;3.88;;
22543;SDS011;11438;52.044;8.716;2023-07-31T06:10:19;8.20;;;3.53;;
22543;SDS011;11438;52.044;8.716;2023-07-31T06:12:45;7.45;;;3.70;;
22543;SDS011;11438;52.044;8.716;2023-07-31T06:15:10;7.20;;;3.25;;
22543;SDS011;11438;52.044;8.716;2023-07-31T06:17:36;7.20;;;3.70;;
22543;SDS011;11438;52.044;8.716;2023-07-31T06:20:02;8.05;;;4.03;;
22543;SDS011;11438;52.044;8.716;2023-07-31T06:22:30;7.63;;;3.83;;
22543;SDS011;11438;52.044;8.716;2023-07-31T06:24:56;8.10;;;3.70;;
22543;SDS011;11438;52.044;8.716;2023-07-31T06:27:21;7.88;;;3.67;;
22543;SDS011;11438;52.044;8.716;2023-07-31T06:29:47;7.68;;;3.47;;
22543;SDS011;11438;52.044;8.716;2023-07-31T06:32:13;9.07;;;3.78;;
22543;SDS011;11438;52.044;8.716;2023-07-31T06:34:38;9.13;;;3.83;;
22543;SDS011;11438;52.044;8.716;2023-07-31T06:37:04;7.72;;;3.75;;
22543;SDS011;11438;52.044;8.716;2023-07-31T06:39:30;9.57;;;4.22;;
22543;SDS011;11438;52.044;8.716;2023-07-31T06:41:55;6.25;;;3.72;;
22543;SDS011;11438;52.044;8.716;2023-07-31T06:44:21;8.63;;;3.50;;
22543;SDS011;11438;52.044;8.716;2023-07-31T06:46:46;9.20;;;3.58;;
22543;SDS011;11438;52.044;8.716;2023-07-31T06:49:12;6.88;;;3.53;;
22543;SDS011;11438;52.044;8.716;2023-07-31T06:51:39;9.48;;;3.60;;
22543;SDS011;11438;52.044;8.716;2023-07-31T06:54:05;11.68;;;3.60;;
22543;SDS011;11438;52.044;8.716;2023-07-31T06:56:31;8.63;;;3.30;;
22543;SDS011;11438;52.044;8.716;2023-07-31T06:58:56;12.32;;;3.70;;
22543;SDS011;11438;52.044;8.716;2023-07-31T07:01:22;8.38;;;3.35;;
22543;SDS011;11438;52.044;8.716;2023-07-31T07:03:47;12.52;;;3.63;;
22543;SDS011;11438;52.044;8.716;2023-07-31T07:06:15;8.90;;;3.20;;
22543;SDS011;11438;52.044;8.716;2023-07-31T07:08:41;7.57;;;3.28;;
22543;SDS011;11438;52.044;8.716;2023-07-31T07:11:07;5.93;;;3.38;;
22543;SDS011;11438;52.044;8.716;2023-07-31T07:13:33;7.32;;;3.80;;
22543;SDS011;11438;52.044;8.716;2023-07-31T07:15:59;7.22;;;2.92;;
22543;SDS011;11438;52.044;8.716;2023-07-31T07:18:24;7.47;;;3.55;;
22543;SDS011;11438;52.044;8.716;2023-07-31T07:20:51;5.78;;;3.42;;
22543;SDS011;11438;52.044;8.716;2023-07-31T07:23:17;6.32;;;3.30;;
22543;SDS011;11438;52.044;8.716;2023-07-31T07:25:43;7.93;;;3.38;;
22543;SDS011;11438;52.044;8.716;2023-07-31T07:28:10;11.88;;;3.28;;
22543;SDS011;11438;52.044;8.716;2023-07-31T07:30:35;7.90;;;3.40;;
22543;SDS011;11438;52.044;8.716;2023-07-31T07:33:01;7.50;;;3.30;;
22543;SDS011;11438;52.044;8.716;2023-07-31T07:35:27;6.28;;;3.10;;
22543;SDS011;11438;52.044;8.716;2023-07-31T07:37:53;8.45;;;3.40;;
22543;SDS011;11438;52.044;8.716;2023-07-31T07:40:18;7.50;;;3.70;;
22543;SDS011;11438;52.044;8.716;2023-07-31T07:42:44;9.13;;;3.38;;
22543;SDS011;11438;52.044;8.716;2023-07-31T07:45:10;6.90;;;3.22;;
22543;SDS011;11438;52.044;8.716;2023-07-31T07:47:36;7.57;;;3.13;;
22543;SDS011;11438;52.044;8.716;2023-07-31T07:50:02;8.80;;;3.30;;
22543;SDS011;11438;52.044;8.716;2023-07-31T07:52:28;6.28;;;3.20;;
22543;SDS011;11438;52.044;8.716;2023-07-31T07:54:53;6.25;;;3.38;;
22543;SDS011;11438;52.044;8.716;2023-07-31T07:57:20;6.38;;;3.20;;
22543;SDS011;11438;52.044;8.716;2023-07-31T07:59:45;6.03;;;3.03;;
22543;SDS011;11438;52.044;8.716;2023-07-31T08:02:11;6.95;;;3.13;;
22543;SDS011;11438;52.044;8.716;2023-07-31T08:04:36;6.05;;;2.50;;
22543;SDS011;11438;52.044;8.716;2023-07-31T08:07:02;5.38;;;2.53;;
22543;SDS011;11438;52.044;8.716;2023-07-31T08:09:27;4.97;;;2.15;;
22543;SDS011;11438;52.044;8.716;2023-07-31T08:11:53;3.65;;;1.63;;
22543;SDS011;11438;52.044;8.716;2023-07-31T08:14:19;2.90;;;1.98;;
22543;SDS011;11438;52.044;8.716;2023-07-31T08:16:45;3.72;;;1.80;;
22543;SDS011;11438;52.044;8.716;2023-07-31T08:19:10;2.40;;;1.58;;
22543;SDS011;11438;52.044;8.716;2023-07-31T08:21:36;2.63;;;1.67;;
22543;SDS011;11438;52.044;8.716;2023-07-31T08:24:02;3.60;;;1.77;;
22543;SDS011;11438;52.044;8.716;2023-07-31T08:26:27;2.55;;;1.45;;
22543;SDS011;11438;52.044;8.716;2023-07-31T08:28:53;4.05;;;1.60;;
22543;SDS011;11438;52.044;8.716;2023-07-31T08:31:18;2.50;;;1.50;;
22543;SDS011;11438;52.044;8.716;2023-07-31T08:33:44;3.45;;;1.35;;
22543;SDS011;11438;52.044;8.716;2023-07-31T08:36:09;2.22;;;1.27;;
22543;SDS011;11438;52.044;8.716;2023-07-31T08:38:35;2.85;;;1.30;;
22543;SDS011;11438;52.044;8.716;2023-07-31T08:41:02;1.80;;;1.33;;
22543;SDS011;11438;52.044;8.716;2023-07-31T08:43:29;3.42;;;1.52;;
22543;SDS011;11438;52.044;8.716;2023-07-31T08:45:55;2.83;;;1.60;;
22543;SDS011;11438;52.044;8.716;2023-07-31T08:48:22;3.83;;;1.77;;
22543;SDS011;11438;52.044;8.716;2023-07-31T08:50:48;2.88;;;2.08;;
22543;SDS011;11438;52.044;8.716;2023-07-31T08:53:13;3.58;;;2.22;;
22543;SDS011;11438;52.044;8.716;2023-07-31T08:55:39;4.03;;;2.35;;
22543;SDS011;11438;52.044;8.716;2023-07-31T08:58:05;2.80;;;1.88;;
22543;SDS011;11438;52.044;8.716;2023-07-31T09:00:31;4.22;;;2.15;;
22543;SDS011;11438;52.044;8.716;2023-07-31T09:03:02;4.38;;;2.28;;
22543;SDS011;11438;52.044;8.716;2023-07-31T09:05:29;2.78;;;2.08;;
22543;SDS011;11438;52.044;8.716;2023-07-31T09:07:55;3.78;;;2.22;;
22543;SDS011;11438;52.044;8.716;2023-07-31T09:10:22;3.13;;;2.00;;
22543;SDS011;11438;52.044;8.716;2023-07-31T09:12:48;3.15;;;1.90;;
22543;SDS011;11438;52.044;8.716;2023-07-31T09:15:16;3.20;;;1.70;;
22543;SDS011;11438;52.044;8.716;2023-07-31T09:17:42;3.42;;;2.00;;
22543;SDS011;11438;52.044;8.716;2023-07-31T09:20:14;3.45;;;1.83;;
22543;SDS011;11438;52.044;8.716;2023-07-31T09:22:41;2.47;;;1.40;;
22543;SDS011;11438;52.044;8.716;2023-07-31T09:25:18;3.30;;;1.55;;
22543;SDS011;11438;52.044;8.716;2023-07-31T09:27:48;2.75;;;1.80;;
22543;SDS011;11438;52.044;8.716;2023-07-31T09:30:25;3.35;;;1.92;;
22543;SDS011;11438;52.044;8.716;2023-07-31T09:32:51;3.58;;;1.85;;
22543;SDS011;11438;52.044;8.716;2023-07-31T09:35:31;2.67;;;1.48;;
22543;SDS011;11438;52.044;8.716;2023-07-31T09:38:09;5.25;;;2.63;;
22543;SDS011;11438;52.044;8.716;2023-07-31T09:40:38;3.25;;;2.00;;
22543;SDS011;11438;52.044;8.716;2023-07-31T09:43:05;4.15;;;2.22;;
22543;SDS011;11438;52.044;8.716;2023-07-31T09:45:39;5.47;;;1.92;;
22543;SDS011;11438;52.044;8.716;2023-07-31T09:48:15;4.97;;;2.03;;
22543;SDS011;11438;52.044;8.716;2023-07-31T09:50:42;3.72;;;1.65;;
22543;SDS011;11438;52.044;8.716;2023-07-31T09:53:17;4.20;;;2.10;;
22543;SDS011;11438;52.044;8.716;2023-07-31T09:55:43;2.92;;;2.13;;
22543;SDS011;11438;52.044;8.716;2023-07-31T09:58:10;5.10;;;2.20;;
22543;SDS011;11438;52.044;8.716;2023-07-31T10:00:37;3.45;;;2.05;;
22543;SDS011;11438;52.044;8.716;2023-07-31T10:03:10;4.50;;;2.33;;
22543;SDS011;11438;52.044;8.716;2023-07-31T10:05:37;2.85;;;1.73;;
22543;SDS011;11438;52.044;8.716;2023-07-31T10:08:06;4.85;;;1.90;;
22543;SDS011;11438;52.044;8.716;2023-07-31T10:10:34;3.17;;;1.67;;
22543;SDS011;11438;52.044;8.716;2023-07-31T10:13:01;2.90;;;1.52;;
22543;SDS011;11438;52.044;8.716;2023-07-31T10:15:27;3.30;;;1.70;;
22543;SDS011;11438;52.044;8.716;2023-07-31T10:17:54;3.00;;;1.90;;
22543;SDS011;11438;52.044;8.716;2023-07-31T10:20:20;2.38;;;1.60;;
22543;SDS011;11438;52.044;8.716;2023-07-31T10:22:46;4.82;;;1.70;;
22543;SDS011;11438;52.044;8.716;2023-07-31T10:25:13;3.33;;;1.70;;
22543;SDS011;11438;52.044;8.716;2023-07-31T10:27:40;4.10;;;2.00;;
22543;SDS011;11438;52.044;8.716;2023-07-31T10:30:14;3.13;;;1.70;;
22543;SDS011;11438;52.044;8.716;2023-07-31T10:32:43;2.53;;;1.55;;
22543;SDS011;11438;52.044;8.716;2023-07-31T10:35:10;2.92;;;1.52;;
22543;SDS011;11438;52.044;8.716;2023-07-31T10:37:40;1.63;;;1.10;;
22543;SDS011;11438;52.044;8.716;2023-07-31T10:40:17;1.92;;;1.25;;
22543;SDS011;11438;52.044;8.716;2023-07-31T10:42:51;1.42;;;1.00;;
22543;SDS011;11438;52.044;8.716;2023-07-31T10:50:49;2.17;;;1.05;;
22543;SDS011;11438;52.044;8.716;2023-07-31T10:53:25;1.63;;;1.00;;
22543;SDS011;11438;52.044;8.716;2023-07-31T10:55:57;1.48;;;0.85;;
22543;SDS011;11438;52.044;8.716;2023-07-31T10:58:24;1.38;;;0.60;;
22543;SDS011;11438;52.044;8.716;2023-07-31T11:00:50;2.10;;;0.70;;
22543;SDS011;11438;52.044;8.716;2023-07-31T11:03:24;0.90;;;0.60;;
22543;SDS011;11438;52.044;8.716;2023-07-31T11:06:03;1.27;;;0.57;;
22543;SDS011;11438;52.044;8.716;2023-07-31T11:08:30;1.63;;;0.80;;
22543;SDS011;11438;52.044;8.716;2023-07-31T11:13:31;2.75;;;0.90;;
22543;SDS011;11438;52.044;8.716;2023-07-31T11:15:58;1.45;;;0.90;;
22543;SDS011;11438;52.044;8.716;2023-07-31T11:18:24;0.88;;;0.60;;
22543;SDS011;11438;52.044;8.716;2023-07-31T11:20:52;1.15;;;0.90;;
22543;SDS011;11438;52.044;8.716;2023-07-31T11:23:18;1.48;;;0.70;;
22543;SDS011;11438;52.044;8.716;2023-07-31T11:25:45;0.98;;;0.88;;
22543;SDS011;11438;52.044;8.716;2023-07-31T11:28:12;0.82;;;0.60;;
22543;SDS011;11438;52.044;8.716;2023-07-31T11:30:40;0.98;;;0.75;;
22543;SDS011;11438;52.044;8.716;2023-07-31T11:33:07;0.98;;;0.60;;
22543;SDS011;11438;52.044;8.716;2023-07-31T11:35:34;1.73;;;0.75;;
22543;SDS011;11438;52.044;8.716;2023-07-31T11:38:06;1.98;;;0.70;;
22543;SDS011;11438;52.044;8.716;2023-07-31T11:40:40;1.15;;;0.80;;
22543;SDS011;11438;52.044;8.716;2023-07-31T11:43:06;12.32;;;0.98;;
22543;SDS011;11438;52.044;8.716;2023-07-31T11:45:32;1.20;;;0.70;;
22543;SDS011;11438;52.044;8.716;2023-07-31T11:48:00;1.33;;;0.68;;
22543;SDS011;11438;52.044;8.716;2023-07-31T11:50:26;0.70;;;0.60;;
22543;SDS011;11438;52.044;8.716;2023-07-31T11:52:56;1.55;;;0.73;;
22543;SDS011;11438;52.044;8.716;2023-07-31T11:55:24;1.05;;;0.73;;
22543;SDS011;11438;52.044;8.716;2023-07-31T11:57:51;3.08;;;1.02;;
22543;SDS011;11438;52.044;8.716;2023-07-31T12:00:17;0.98;;;0.70;;
22543;SDS011;11438;52.044;8.716;2023-07-31T12:02:43;1.85;;;0.90;;
22543;SDS011;11438;52.044;8.716;2023-07-31T12:05:12;1.95;;;0.93;;
22543;SDS011;11438;52.044;8.716;2023-07-31T12:07:45;3.25;;;1.17;;
22543;SDS011;11438;52.044;8.716;2023-07-31T12:10:22;2.67;;;0.85;;
22543;SDS011;11438;52.044;8.716;2023-07-31T12:13:11;0.93;;;0.70;;
22543;SDS011;11438;52.044;8.716;2023-07-31T12:15:44;1.45;;;0.80;;
22543;SDS011;11438;52.044;8.716;2023-07-31T12:18:14;1.40;;;0.90;;
22543;SDS011;11438;52.044;8.716;2023-07-31T12:20:45;1.33;;;0.50;;
22543;SDS011;11438;52.044;8.716;2023-07-31T12:23:13;1.10;;;0.80;;
22543;SDS011;11438;52.044;8.716;2023-07-31T12:25:42;1.35;;;0.85;;
22543;SDS011;11438;52.044;8.716;2023-07-31T12:28:08;1.58;;;0.60;;
22543;SDS011;11438;52.044;8.716;2023-07-31T12:30:36;1.40;;;0.80;;
22543;SDS011;11438;52.044;8.716;2023-07-31T12:33:06;1.20;;;0.77;;
22543;SDS011;11438;52.044;8.716;2023-07-31T12:35:37;2.15;;;0.75;;
22543;SDS011;11438;52.044;8.716;2023-07-31T12:38:05;0.80;;;0.60;;
22543;SDS011;11438;52.044;8.716;2023-07-31T12:40:31;1.50;;;0.70;;
22543;SDS011;11438;52.044;8.716;2023-07-31T12:42:57;1.17;;;0.60;;
22543;SDS011;11438;52.044;8.716;2023-07-31T12:45:23;0.85;;;0.57;;
22543;SDS011;11438;52.044;8.716;2023-07-31T12:47:49;1.13;;;0.70;;
22543;SDS011;11438;52.044;8.716;2023-07-31T12:50:15;1.27;;;0.60;;
22543;SDS011;11438;52.044;8.716;2023-07-31T12:52:40;2.17;;;0.57;;
22543;SDS011;11438;52.044;8.716;2023-07-31T12:55:06;0.70;;;0.60;;
22543;SDS011;11438;52.044;8.716;2023-07-31T12:57:32;1.40;;;0.70;;
22543;SDS011;11438;52.044;8.716;2023-07-31T12:59:57;1.45;;;0.80;;
22543;SDS011;11438;52.044;8.716;2023-07-31T13:02:23;1.70;;;0.60;;
22543;SDS011;11438;52.044;8.716;2023-07-31T13:04:49;1.13;;;0.60;;
22543;SDS011;11438;52.044;8.716;2023-07-31T13:07:15;0.68;;;0.52;;
22543;SDS011;11438;52.044;8.716;2023-07-31T13:09:40;0.75;;;0.63;;
22543;SDS011;11438;52.044;8.716;2023-07-31T13:12:06;1.27;;;0.77;;
22543;SDS011;11438;52.044;8.716;2023-07-31T13:14:32;1.25;;;0.90;;
22543;SDS011;11438;52.044;8.716;2023-07-31T13:16:57;1.48;;;1.00;;
22543;SDS011;11438;52.044;8.716;2023-07-31T13:19:23;1.10;;;0.90;;
22543;SDS011;11438;52.044;8.716;2023-07-31T13:21:49;2.17;;;1.40;;
22543;SDS011;11438;52.044;8.716;2023-07-31T13:24:14;2.70;;;1.60;;
22543;SDS011;11438;52.044;8.716;2023-07-31T13:26:40;1.88;;;1.67;;
22543;SDS011;11438;52.044;8.716;2023-07-31T13:29:05;2.45;;;2.00;;
22543;SDS011;11438;52.044;8.716;2023-07-31T13:31:31;2.50;;;1.92;;
22543;SDS011;11438;52.044;8.716;2023-07-31T13:33:56;2.55;;;1.90;;
22543;SDS011;11438;52.044;8.716;2023-07-31T13:36:22;4.55;;;2.05;;
22543;SDS011;11438;52.044;8.716;2023-07-31T13:38:47;2.65;;;1.65;;
22543;SDS011;11438;52.044;8.716;2023-07-31T13:41:13;2.15;;;1.67;;
22543;SDS011;11438;52.044;8.716;2023-07-31T13:43:38;2.92;;;1.50;;
22543;SDS011;11438;52.044;8.716;2023-07-31T13:46:04;2.40;;;1.73;;
22543;SDS011;11438;52.044;8.716;2023-07-31T13:48:34;3.10;;;1.80;;
22543;SDS011;11438;52.044;8.716;2023-07-31T13:51:00;2.42;;;1.50;;
22543;SDS011;11438;52.044;8.716;2023-07-31T13:53:25;3.63;;;2.05;;
22543;SDS011;11438;52.044;8.716;2023-07-31T13:55:51;2.70;;;1.73;;
22543;SDS011;11438;52.044;8.716;2023-07-31T13:58:17;3.53;;;1.60;;
22543;SDS011;11438;52.044;8.716;2023-07-31T14:00:43;2.20;;;1.58;;
22543;SDS011;11438;52.044;8.716;2023-07-31T14:03:08;2.53;;;1.77;;
22543;SDS011;11438;52.044;8.716;2023-07-31T14:05:34;1.80;;;1.30;;
22543;SDS011;11438;52.044;8.716;2023-07-31T14:08:00;4.18;;;1.90;;
22543;SDS011;11438;52.044;8.716;2023-07-31T14:10:26;3.58;;;1.90;;
22543;SDS011;11438;52.044;8.716;2023-07-31T14:12:51;2.67;;;1.45;;
22543;SDS011;11438;52.044;8.716;2023-07-31T14:15:17;3.97;;;1.70;;
22543;SDS011;11438;52.044;8.716;2023-07-31T14:17:42;2.47;;;1.70;;
22543;SDS011;11438;52.044;8.716;2023-07-31T14:20:08;2.78;;;1.50;;
22543;SDS011;11438;52.044;8.716;2023-07-31T14:22:34;1.70;;;1.15;;
22543;SDS011;11438;52.044;8.716;2023-07-31T14:25:00;2.45;;;1.50;;
22543;SDS011;11438;52.044;8.716;2023-07-31T14:27:26;3.03;;;1.75;;
22543;SDS011;11438;52.044;8.716;2023-07-31T14:29:51;1.73;;;1.30;;
22543;SDS011;11438;52.044;8.716;2023-07-31T14:32:17;2.03;;;1.50;;
22543;SDS011;11438;52.044;8.716;2023-07-31T14:34:42;1.90;;;1.50;;
22543;SDS011;11438;52.044;8.716;2023-07-31T14:37:08;1.45;;;1.35;;
22543;SDS011;11438;52.044;8.716;2023-07-31T14:39:33;2.00;;;1.50;;
22543;SDS011;11438;52.044;8.716;2023-07-31T14:41:59;2.75;;;1.55;;
22543;SDS011;11438;52.044;8.716;2023-07-31T14:44:24;2.80;;;1.70;;
22543;SDS011;11438;52.044;8.716;2023-07-31T14:46:50;3.00;;;1.58;;
22543;SDS011;11438;52.044;8.716;2023-07-31T14:49:16;2.53;;;1.80;;
22543;SDS011;11438;52.044;8.716;2023-07-31T14:51:41;2.35;;;1.67;;
22543;SDS011;11438;52.044;8.716;2023-07-31T14:54:07;2.40;;;1.90;;
22543;SDS011;11438;52.044;8.716;2023-07-31T14:56:32;2.72;;;1.90;;